Time;durP1;ratioP1;P1;durP2;ratioP2;P2;SDS_P1;SDS_P2;PMS_P1;PMS_P2;Temp;Humidity;BMP_temperature;BMP_pressure;BME280_temperature;BME280_humidity;BME280_pressure;Samples;Min_cycle;Max_cycle;Signal;HPM_P1;HPM_P2
2022/02/11 00:05:30;;;;;;;0.00;0.00;;;;;23.50;100285.00;;;;5110119;28;20066;-76
2022/02/11 00:07:58;;;;;;;0.00;0.00;;;;;23.40;100290.00;;;;5108276;28;20822;-78
2022/02/11 00:10:28;;;;;;;0.00;0.00;;;;;23.50;100284.00;;;;5110626;28;20035;-74
2022/02/11 00:12:58;;;;;;;0.00;0.00;;;;;23.50;100293.00;;;;5110425;28;20044;-74
2022/02/11 00:15:40;;;;;;;0.00;0.00;;;;;23.60;100294.00;;;;5110136;28;20549;-75
2022/02/11 00:18:15;;;;;;;0.00;0.00;;;;;23.70;100298.00;;;;5110515;28;20047;-74
2022/02/11 00:20:48;;;;;;;0.00;0.00;;;;;23.80;100298.00;;;;5109710;28;20038;-74
2022/02/11 00:23:20;;;;;;;0.00;0.00;;;;;23.80;100286.00;;;;5110905;28;20436;-75
2022/02/11 00:26:02;;;;;;;0.00;0.00;;;;;23.90;100280.00;;;;5110497;28;20067;-76
2022/02/11 00:32:08;;;;;;;0.00;0.00;;;;;24.00;100293.00;;;;5111050;28;20516;-78
2022/02/11 00:34:13;;;;;;;0.00;0.00;;;;;23.70;100276.00;;;;5101155;28;20491;-76
2022/02/11 00:36:56;;;;;;;0.00;0.00;;;;;23.60;100298.00;;;;5110153;28;20395;-76
2022/02/11 01:04:19;;;;;;;0.00;0.00;;;;;22.50;100313.00;;;;5108989;28;20066;-75
2022/02/11 01:06:52;;;;;;;0.00;0.00;;;;;22.40;100323.00;;;;5107872;28;20035;-78
2022/02/11 01:09:22;;;;;;;0.00;0.00;;;;;22.40;100310.00;;;;5106971;28;20043;-76
2022/02/11 01:11:54;;;;;;;0.00;0.00;;;;;22.20;100319.00;;;;5111221;27;20051;-76
2022/02/11 01:14:36;;;;;;;0.00;0.00;;;;;22.10;100300.00;;;;5107543;28;20502;-77
2022/02/11 01:23:05;;;;;;;0.20;0.20;;;;;21.80;100321.00;;;;5108424;28;20043;-76
2022/02/11 01:28:49;;;;;;;0.00;0.00;;;;;21.90;100310.00;;;;5108309;28;20031;-80
2022/02/11 01:53:33;;;;;;;1.95;0.73;;;;;21.60;100313.00;;;;5108152;28;20051;-79
2022/02/11 02:02:18;;;;;;;0.00;0.00;;;;;21.40;100293.00;;;;5105918;28;20056;-78
2022/02/11 02:43:28;;;;;;;0.00;0.00;;;;;21.30;100296.00;;;;5074494;28;20047;-80
2022/02/11 02:59:27;;;;;;;0.00;0.00;;;;;21.20;100298.00;;;;5106540;28;20126;-73
2022/02/11 03:02:06;;;;;;;0.10;0.10;;;;;21.10;100277.00;;;;5106597;28;20043;-76
2022/02/11 03:35:08;;;;;;;0.00;0.00;;;;;20.70;100256.00;;;;5106581;28;20050;-75
2022/02/11 04:55:36;;;;;;;0.10;0.10;;;;;19.60;100221.00;;;;5109684;28;20039;-73
2022/02/11 05:00:55;;;;;;;0.00;0.00;;;;;19.70;100249.00;;;;5108955;28;20555;-73
2022/02/11 05:03:24;;;;;;;0.47;0.47;;;;;19.70;100231.00;;;;5108549;28;20054;-75
2022/02/11 05:05:54;;;;;;;0.00;0.00;;;;;19.80;100240.00;;;;5108524;27;20053;-76
2022/02/11 05:08:25;;;;;;;0.00;0.00;;;;;19.80;100228.00;;;;5108931;28;20062;-74
2022/02/11 05:10:55;;;;;;;;;;;;;19.80;100249.00;;;;5108643;28;20073;-74
2022/02/11 05:13:25;;;;;;;0.00;0.00;;;;;19.80;100225.00;;;;5108544;28;19934;-74
2022/02/11 05:15:55;;;;;;;0.00;0.00;;;;;19.80;100235.00;;;;5108611;28;20122;-76
2022/02/11 05:18:25;;;;;;;1.35;0.65;;;;;19.80;100235.00;;;;5108178;28;20046;-74
2022/02/11 05:20:54;;;;;;;0.00;0.00;;;;;19.80;100233.00;;;;5109053;27;20621;-74
2022/02/11 05:23:23;;;;;;;0.00;0.00;;;;;19.70;100237.00;;;;5110437;28;20537;-74
2022/02/11 05:25:53;;;;;;;0.20;0.10;;;;;19.70;100243.00;;;;5109629;28;20054;-76
2022/02/11 05:28:22;;;;;;;0.00;0.00;;;;;19.60;100249.00;;;;5109371;28;20062;-74
2022/02/11 05:30:52;;;;;;;0.00;0.00;;;;;19.60;100231.00;;;;5109628;28;20035;-76
2022/02/11 05:33:23;;;;;;;0.00;0.00;;;;;19.60;100233.00;;;;5109948;28;20054;-75
2022/02/11 05:35:52;;;;;;;0.00;0.00;;;;;19.60;100238.00;;;;5123647;28;20126;-75
2022/02/11 05:38:22;;;;;;;0.05;0.05;;;;;19.60;100227.00;;;;5123212;28;20040;-74
2022/02/11 05:40:51;;;;;;;0.00;0.00;;;;;19.60;100236.00;;;;5124439;28;20108;-74
2022/02/11 05:43:21;;;;;;;0.10;0.10;;;;;19.70;100230.00;;;;5125266;28;20134;-76
2022/02/11 05:45:51;;;;;;;0.00;0.00;;;;;19.70;100223.00;;;;5122252;28;20107;-75
2022/02/11 05:48:20;;;;;;;0.17;0.17;;;;;19.60;100230.00;;;;5119398;28;20058;-74
2022/02/11 05:50:49;;;;;;;0.00;0.00;;;;;19.60;100225.00;;;;5109045;28;20032;-73
2022/02/11 05:53:19;;;;;;;0.00;0.00;;;;;19.60;100220.00;;;;5107381;28;20048;-75
2022/02/11 05:55:48;;;;;;;0.00;0.00;;;;;19.50;100232.00;;;;5106736;28;20052;-74
2022/02/11 05:58:18;;;;;;;0.10;0.10;;;;;19.50;100220.00;;;;5108061;28;20399;-77
2022/02/11 06:00:47;;;;;;;0.00;0.00;;;;;19.50;100214.00;;;;5107527;28;20047;-74
2022/02/11 06:03:18;;;;;;;;;;;;;19.40;100235.00;;;;5107604;28;20042;-74
2022/02/11 06:05:48;;;;;;;0.00;0.00;;;;;19.40;100212.00;;;;5107789;28;20518;-73
2022/02/11 06:08:17;;;;;;;0.00;0.00;;;;;19.40;100235.00;;;;5106423;28;20048;-74
2022/02/11 06:10:47;;;;;;;0.00;0.00;;;;;19.40;100225.00;;;;5107363;28;20028;-74
2022/02/11 06:13:17;;;;;;;0.00;0.00;;;;;19.40;100234.00;;;;5108302;28;20116;-74
2022/02/11 06:15:46;;;;;;;0.00;0.00;;;;;19.40;100223.00;;;;5107698;28;20043;-76
2022/02/11 06:18:16;;;;;;;0.00;0.00;;;;;19.40;100222.00;;;;5107662;28;20744;-74
2022/02/11 06:20:45;;;;;;;0.00;0.00;;;;;19.40;100207.00;;;;5107882;27;20035;-73
2022/02/11 06:23:14;;;;;;;0.17;0.17;;;;;19.40;100208.00;;;;5107069;28;20044;-76
2022/02/11 06:25:44;;;;;;;0.00;0.00;;;;;19.30;100222.00;;;;5107172;28;20102;-75
2022/02/11 06:28:15;;;;;;;0.00;0.00;;;;;19.40;100204.00;;;;5105943;28;20047;-74
2022/02/11 06:30:46;;;;;;;0.00;0.00;;;;;19.30;100205.00;;;;5107141;28;20060;-73
2022/02/11 06:33:16;;;;;;;0.03;0.03;;;;;19.30;100208.00;;;;5106456;28;20127;-76
2022/02/11 06:35:45;;;;;;;0.10;0.10;;;;;19.40;100211.00;;;;5107380;28;20506;-75
2022/02/11 06:38:17;;;;;;;0.00;0.00;;;;;19.30;100212.00;;;;5106501;28;20039;-76
2022/02/11 06:40:46;;;;;;;;;;;;;19.30;100213.00;;;;5108379;28;20071;-74
2022/02/11 06:43:15;;;;;;;0.00;0.00;;;;;19.30;100197.00;;;;5107341;28;19924;-74
2022/02/11 06:45:45;;;;;;;0.00;0.00;;;;;19.30;100197.00;;;;5107244;28;20075;-76
2022/02/11 06:48:16;;;;;;;0.00;0.00;;;;;19.30;100190.00;;;;5107082;28;20458;-75
2022/02/11 06:50:47;;;;;;;0.00;0.00;;;;;19.30;100207.00;;;;5106281;28;20072;-77
2022/02/11 06:53:17;;;;;;;0.00;0.00;;;;;19.30;100204.00;;;;5107016;28;20047;-75
2022/02/11 06:55:47;;;;;;;0.75;0.40;;;;;19.30;100215.00;;;;5106749;28;20088;-76
2022/02/11 06:58:16;;;;;;;0.00;0.00;;;;;19.30;100198.00;;;;5105368;28;20438;-76
2022/02/11 07:00:48;;;;;;;0.17;0.17;;;;;19.30;100225.00;;;;5106788;28;20047;-76
2022/02/11 07:03:19;;;;;;;0.00;0.00;;;;;19.30;100210.00;;;;5107294;28;20040;-76
2022/02/11 07:05:51;;;;;;;0.00;0.00;;;;;19.30;100198.00;;;;5107628;28;20097;-74
2022/02/11 07:08:21;;;;;;;0.00;0.00;;;;;19.20;100191.00;;;;5107221;28;20822;-76
2022/02/11 07:10:51;;;;;;;0.00;0.00;;;;;19.20;100196.00;;;;5106680;28;20044;-74
2022/02/11 07:13:22;;;;;;;0.00;0.00;;;;;19.20;100210.00;;;;5105325;28;20035;-75
2022/02/11 07:15:51;;;;;;;0.00;0.00;;;;;19.30;100206.00;;;;5106727;28;20506;-73
2022/02/11 07:18:21;;;;;;;0.00;0.00;;;;;19.30;100215.00;;;;5106792;28;20044;-75
2022/02/11 07:20:50;;;;;;;0.55;0.25;;;;;19.30;100202.00;;;;5106798;28;20093;-74
2022/02/11 07:23:20;;;;;;;0.00;0.00;;;;;19.30;100216.00;;;;5106775;28;20039;-75
2022/02/11 07:25:50;;;;;;;0.00;0.00;;;;;19.30;100217.00;;;;5105125;28;20042;-74
2022/02/11 07:28:20;;;;;;;0.30;0.30;;;;;19.20;100230.00;;;;5107089;28;20035;-74
2022/02/11 07:30:51;;;;;;;0.00;0.00;;;;;19.10;100219.00;;;;5106712;28;20043;-74
2022/02/11 07:33:20;;;;;;;0.00;0.00;;;;;19.00;100219.00;;;;5105998;28;20051;-74
2022/02/11 07:35:50;;;;;;;0.00;0.00;;;;;19.00;100202.00;;;;5105237;28;20054;-75
2022/02/11 07:38:19;;;;;;;0.00;0.00;;;;;19.00;100205.00;;;;5106342;28;20047;-75
2022/02/11 07:40:49;;;;;;;0.00;0.00;;;;;18.90;100202.00;;;;5088128;28;20052;-74
2022/02/11 07:43:18;;;;;;;0.00;0.00;;;;;18.90;100220.00;;;;5106900;28;20510;-76
2022/02/11 07:46:08;;;;;;;0.00;0.00;;;;;18.80;100210.00;;;;5110344;28;20410;-74
2022/02/11 07:48:38;;;;;;;0.00;0.00;;;;;18.90;100204.00;;;;5106194;27;20054;-74
2022/02/11 07:51:07;;;;;;;0.00;0.00;;;;;18.90;100220.00;;;;5105967;28;20050;-73
2022/02/11 07:53:45;;;;;;;0.00;0.00;;;;;18.90;100217.00;;;;5107501;28;20051;-75
2022/02/11 07:56:15;;;;;;;0.00;0.00;;;;;18.80;100229.00;;;;5108958;28;20052;-74
2022/02/11 07:58:45;;;;;;;0.00;0.00;;;;;18.80;100223.00;;;;5110094;28;20043;-75
2022/02/11 08:01:16;;;;;;;0.00;0.00;;;;;18.80;100213.00;;;;5110175;28;20526;-75
2022/02/11 08:03:46;;;;;;;0.00;0.00;;;;;18.80;100225.00;;;;5108950;28;20039;-75
2022/02/11 08:06:16;;;;;;;0.00;0.00;;;;;18.70;100237.00;;;;5109811;28;20051;-76
2022/02/11 08:08:45;;;;;;;0.00;0.00;;;;;18.70;100237.00;;;;5110651;28;20043;-75
2022/02/11 08:11:14;;;;;;;0.00;0.00;;;;;18.70;100216.00;;;;5109719;28;20051;-75
2022/02/11 08:13:44;;;;;;;0.28;0.28;;;;;18.70;100233.00;;;;5109789;27;20054;-73
2022/02/11 08:16:14;;;;;;;0.00;0.00;;;;;18.70;100245.00;;;;5110210;28;20047;-75
2022/02/11 08:18:44;;;;;;;0.00;0.00;;;;;18.60;100244.00;;;;5108020;28;20047;-76
2022/02/11 08:21:16;;;;;;;0.00;0.00;;;;;18.60;100230.00;;;;5108063;28;20048;-76
2022/02/11 08:23:46;;;;;;;0.00;0.00;;;;;18.60;100245.00;;;;5110589;27;20445;-76
2022/02/11 08:26:16;;;;;;;0.00;0.00;;;;;18.70;100248.00;;;;5109563;28;20051;-75
2022/02/11 08:28:45;;;;;;;0.00;0.00;;;;;18.70;100241.00;;;;5109074;28;20043;-74
2022/02/11 08:31:15;;;;;;;0.00;0.00;;;;;18.60;100242.00;;;;5109038;28;20047;-74
2022/02/11 08:33:49;;;;;;;0.00;0.00;;;;;18.50;100229.00;;;;5109316;28;20050;-75
2022/02/11 08:36:22;;;;;;;0.00;0.00;;;;;18.60;100238.00;;;;5109730;28;20075;-75
2022/02/11 08:38:51;;;;;;;0.00;0.00;;;;;18.60;100246.00;;;;5108891;27;20111;-76
2022/02/11 08:41:26;;;;;;;0.00;0.00;;;;;18.60;100252.00;;;;5109857;28;20055;-74
2022/02/11 08:43:55;;;;;;;3.33;0.43;;;;;18.60;100249.00;;;;5109221;28;20060;-74
2022/02/11 08:46:27;;;;;;;0.00;0.00;;;;;18.60;100252.00;;;;5109120;28;20118;-77
2022/02/11 08:48:57;;;;;;;0.00;0.00;;;;;18.60;100247.00;;;;5091247;28;20082;-76
2022/02/11 08:51:30;;;;;;;0.00;0.00;;;;;18.60;100246.00;;;;5108186;28;20043;-75
2022/02/11 08:53:59;;;;;;;0.00;0.00;;;;;18.50;100248.00;;;;5110018;28;20414;-76
2022/02/11 08:56:29;;;;;;;0.08;0.08;;;;;18.50;100252.00;;;;5108872;28;20097;-75
2022/02/11 08:58:58;;;;;;;0.00;0.00;;;;;18.50;100247.00;;;;5109124;28;20040;-74
2022/02/11 09:01:28;;;;;;;0.00;0.00;;;;;18.50;100262.00;;;;5109649;28;20047;-75
2022/02/11 09:03:57;;;;;;;0.00;0.00;;;;;18.60;100258.00;;;;5108967;28;20043;-76
2022/02/11 09:06:26;;;;;;;0.00;0.00;;;;;18.60;100263.00;;;;5109007;28;20406;-75
2022/02/11 09:08:56;;;;;;;0.00;0.00;;;;;18.70;100285.00;;;;5090615;28;20056;-75
2022/02/11 09:11:25;;;;;;;0.00;0.00;;;;;18.70;100272.00;;;;5108178;28;20123;-76
2022/02/11 09:13:58;;;;;;;0.00;0.00;;;;;18.70;100290.00;;;;5109301;28;20073;-76
2022/02/11 09:16:27;;;;;;;0.30;0.20;;;;;18.70;100269.00;;;;5109088;28;20062;-76
2022/02/11 09:18:57;;;;;;;0.00;0.00;;;;;18.80;100280.00;;;;5107419;28;20077;-77
2022/02/11 09:21:26;;;;;;;0.00;0.00;;;;;18.80;100304.00;;;;5108565;28;20430;-75
2022/02/11 09:23:56;;;;;;;0.00;0.00;;;;;18.90;100295.00;;;;5108701;28;20040;-76
2022/02/11 09:26:25;;;;;;;0.00;0.00;;;;;19.00;100297.00;;;;5106792;28;20094;-76
2022/02/11 09:28:55;;;;;;;0.00;0.00;;;;;19.00;100276.00;;;;5108318;28;20047;-76
2022/02/11 09:31:27;;;;;;;0.00;0.00;;;;;19.10;100297.00;;;;5108877;28;20039;-75
2022/02/11 09:34:05;;;;;;;0.00;0.00;;;;;19.20;100288.00;;;;5107601;28;20047;-76
2022/02/11 09:36:39;;;;;;;0.00;0.00;;;;;19.20;100315.00;;;;5107770;28;20040;-77
2022/02/11 09:39:11;;;;;;;0.00;0.00;;;;;19.30;100309.00;;;;5107895;28;20131;-77
2022/02/11 09:41:41;;;;;;;0.00;0.00;;;;;19.40;100298.00;;;;5107968;28;20043;-76
2022/02/11 09:44:14;;;;;;;0.00;0.00;;;;;19.50;100315.00;;;;5107598;28;20063;-74
2022/02/11 09:46:45;;;;;;;0.00;0.00;;;;;19.60;100310.00;;;;5108255;28;20541;-75
2022/02/11 09:49:12;;;;;;;0.00;0.00;;;;;19.70;100330.00;;;;5107897;28;20114;-76
2022/02/11 09:51:41;;;;;;;0.00;0.00;;;;;19.80;100308.00;;;;5107429;28;20070;-76
2022/02/11 09:54:15;;;;;;;0.00;0.00;;;;;20.00;100304.00;;;;5106425;28;20562;-76
2022/02/11 09:56:45;;;;;;;0.20;0.20;;;;;20.10;100309.00;;;;5107284;28;20062;-75
2022/02/11 09:59:14;;;;;;;0.00;0.00;;;;;20.30;100311.00;;;;5106035;28;20052;-75
2022/02/11 10:01:45;;;;;;;0.00;0.00;;;;;20.30;100331.00;;;;5107598;28;20093;-74
2022/02/11 10:04:17;;;;;;;0.00;0.00;;;;;20.50;100335.00;;;;5107845;28;20063;-77
2022/02/11 10:06:48;;;;;;;0.00;0.00;;;;;20.60;100336.00;;;;5108373;28;20054;-76
2022/02/11 10:09:22;;;;;;;0.00;0.00;;;;;20.80;100318.00;;;;5108086;28;20089;-76
2022/02/11 10:11:54;;;;;;;0.00;0.00;;;;;21.20;100288.00;;;;5106990;28;20036;-76
2022/02/11 10:14:35;;;;;;;0.00;0.00;;;;;23.00;100283.00;;;;5107335;28;20038;-76
2022/02/11 10:17:16;;;;;;;58.30;53.95;;;;;24.40;100205.00;;;;5107384;28;20126;-75
2022/02/11 10:19:52;;;;;;;0.00;0.00;;;;;26.90;100199.00;;;;5105693;28;20044;-75
2022/02/11 10:22:27;;;;;;;0.00;0.00;;;;;25.90;100254.00;;;;5107346;28;20039;-76
2022/02/11 10:24:59;;;;;;;5.10;4.78;;;;;26.70;100263.00;;;;5105971;28;20114;-74
2022/02/11 10:27:33;;;;;;;0.00;0.00;;;;;26.10;100248.00;;;;5106153;28;20566;-77
2022/02/11 10:30:08;;;;;;;0.00;0.00;;;;;28.40;100188.00;;;;5107511;28;20043;-78
2022/02/11 10:32:44;;;;;;;0.00;0.00;;;;;30.40;100172.00;;;;5106789;28;20699;-77
2022/02/11 10:35:17;;;;;;;0.00;0.00;;;;;31.10;100167.00;;;;5107503;28;20127;-77
2022/02/11 10:38:17;;;;;;;0.08;0.08;;;;;31.70;100143.00;;;;5106755;28;20110;-77
2022/02/11 10:40:48;;;;;;;;;;;;;32.20;100162.00;;;;5106316;28;20547;-75
2022/02/11 10:43:26;;;;;;;0.00;0.00;;;;;32.70;100157.00;;;;5106878;28;19934;-76
2022/02/11 10:46:01;;;;;;;0.03;0.03;;;;;32.90;100161.00;;;;5106645;28;20571;-77
2022/02/11 10:48:34;;;;;;;0.03;0.03;;;;;33.00;100154.00;;;;5106444;28;20040;-76
2022/02/11 10:51:08;;;;;;;0.00;0.00;;;;;33.60;100150.00;;;;5088885;28;20071;-77
2022/02/11 10:53:42;;;;;;;0.00;0.00;;;;;34.30;100163.00;;;;5106704;28;20530;-77
2022/02/11 10:56:15;;;;;;;0.00;0.00;;;;;35.10;100154.00;;;;5105239;28;20403;-76
2022/02/11 10:58:57;;;;;;;0.00;0.00;;;;;35.50;100146.00;;;;5106359;28;20079;-77
2022/02/11 11:01:29;;;;;;;0.00;0.00;;;;;35.20;100143.00;;;;5106870;28;20035;-77
2022/02/11 11:03:59;;;;;;;0.00;0.00;;;;;35.60;100147.00;;;;5107032;28;20063;-76
2022/02/11 11:06:30;;;;;;;0.00;0.00;;;;;35.90;100147.00;;;;5106631;28;20071;-78
2022/02/11 11:09:00;;;;;;;0.00;0.00;;;;;36.90;100143.00;;;;5106090;28;20064;-75
2022/02/11 11:11:30;;;;;;;0.00;0.00;;;;;36.80;100129.00;;;;5106539;28;20494;-76
2022/02/11 11:14:01;;;;;;;0.00;0.00;;;;;36.80;100152.00;;;;5106374;28;20051;-77
2022/02/11 11:16:33;;;;;;;0.00;0.00;;;;;37.40;100147.00;;;;5106575;28;20047;-76
2022/02/11 11:19:03;;;;;;;0.00;0.00;;;;;36.90;100131.00;;;;5107155;28;20089;-77
2022/02/11 11:21:38;;;;;;;0.00;0.00;;;;;36.80;100132.00;;;;5092138;28;20510;-77
2022/02/11 11:24:09;;;;;;;0.00;0.00;;;;;36.90;100139.00;;;;5110317;28;20414;-77
2022/02/11 11:26:46;;;;;;;0.00;0.00;;;;;37.50;100150.00;;;;5110415;28;20035;-74
2022/02/11 11:29:18;;;;;;;0.00;0.00;;;;;37.70;100148.00;;;;5111424;28;20126;-75
2022/02/11 11:31:56;;;;;;;0.00;0.00;;;;;38.00;100156.00;;;;5110004;28;20590;-75
2022/02/11 11:34:32;;;;;;;0.00;0.00;;;;;37.60;100158.00;;;;5109806;28;20417;-77
2022/02/11 11:37:10;;;;;;;0.00;0.00;;;;;36.90;100156.00;;;;5108868;28;20052;-74
2022/02/11 11:39:42;;;;;;;0.00;0.00;;;;;37.20;100154.00;;;;5109962;28;20039;-77
2022/02/11 11:42:16;;;;;;;0.08;0.08;;;;;36.90;100162.00;;;;5109942;28;20039;-76
2022/02/11 11:44:53;;;;;;;0.00;0.00;;;;;37.30;100172.00;;;;5110391;28;20039;-75
2022/02/11 11:47:28;;;;;;;0.00;0.00;;;;;36.10;100155.00;;;;5109943;28;20106;-76
2022/02/11 11:49:59;;;;;;;0.00;0.00;;;;;35.90;100154.00;;;;5108505;28;20100;-76
2022/02/11 11:52:46;;;;;;;0.00;0.00;;;;;35.80;100166.00;;;;5108349;28;20413;-77
2022/02/11 11:55:24;;;;;;;0.00;0.00;;;;;35.50;100171.00;;;;5110832;28;20393;-76
2022/02/11 11:57:54;;;;;;;0.00;0.00;;;;;35.30;100186.00;;;;5110284;28;20032;-75
2022/02/11 12:00:41;;;;;;;0.00;0.00;;;;;34.50;100177.00;;;;5109674;28;20429;-79
2022/02/11 12:03:11;;;;;;;0.00;0.00;;;;;34.30;100207.00;;;;5109191;28;20047;-78
2022/02/11 12:05:42;;;;;;;0.00;0.00;;;;;33.80;100218.00;;;;5109303;28;20050;-77
2022/02/11 12:08:14;;;;;;;0.00;0.00;;;;;34.00;100233.00;;;;5109887;28;20045;-74
2022/02/11 12:10:47;;;;;;;0.00;0.00;;;;;33.80;100261.00;;;;5110154;28;20698;-76
2022/02/11 12:13:19;;;;;;;0.00;0.00;;;;;33.20;100291.00;;;;5109150;27;20512;-76
2022/02/11 12:15:50;;;;;;;0.00;0.00;;;;;33.80;100332.00;;;;5118111;27;20175;-74
2022/02/11 12:18:21;;;;;;;0.00;0.00;;;;;33.60;100333.00;;;;5099868;27;20047;-76
2022/02/11 12:20:51;;;;;;;0.00;0.00;;;;;32.60;100343.00;;;;5120506;27;20039;-77
2022/02/11 12:28:57;;;;;;;0.00;0.00;;;;;32.90;100333.00;;;;5130380;27;20559;-77
2022/02/11 12:31:29;;;;;;;0.00;0.00;;;;;32.50;100349.00;;;;5128942;27;20039;-74
2022/02/11 12:34:17;;;;;;;0.00;0.00;;;;;33.00;100349.00;;;;5129527;27;20074;-76
2022/02/11 12:36:46;;;;;;;0.00;0.00;;;;;33.10;100345.00;;;;5128220;27;20047;-74
2022/02/11 12:39:23;;;;;;;0.00;0.00;;;;;32.70;100335.00;;;;5129254;27;20046;-73
2022/02/11 12:41:56;;;;;;;0.00;0.00;;;;;33.00;100341.00;;;;5129192;27;20039;-76
2022/02/11 12:44:30;;;;;;;0.00;0.00;;;;;33.30;100342.00;;;;5128935;27;20059;-75
2022/02/11 12:47:02;;;;;;;0.00;0.00;;;;;32.30;100350.00;;;;5130205;27;20107;-75
2022/02/11 12:49:35;;;;;;;0.00;0.00;;;;;32.10;100348.00;;;;5130218;27;20035;-76
2022/02/11 12:52:05;;;;;;;0.00;0.00;;;;;32.60;100336.00;;;;5129658;27;20081;-74
2022/02/11 12:54:35;;;;;;;0.00;0.00;;;;;33.40;100335.00;;;;5129102;27;20047;-76
2022/02/11 12:57:12;;;;;;;0.00;0.00;;;;;33.30;100344.00;;;;5129165;27;20540;-75
2022/02/11 12:59:52;;;;;;;0.00;0.00;;;;;33.40;100337.00;;;;5128340;27;20166;-76
2022/02/11 13:02:35;;;;;;;0.00;0.00;;;;;33.80;100346.00;;;;5129906;27;20043;-78
2022/02/11 13:05:12;;;;;;;0.00;0.00;;;;;33.90;100355.00;;;;5111459;27;20100;-77
2022/02/11 13:07:44;;;;;;;0.10;0.10;;;;;33.50;100347.00;;;;5127743;27;20051;-78
2022/02/11 13:10:25;;;;;;;0.00;0.00;;;;;33.20;100358.00;;;;5127763;27;20055;-77
2022/02/11 13:13:00;;;;;;;0.00;0.00;;;;;33.50;100364.00;;;;5127272;27;20446;-79
2022/02/11 13:15:35;;;;;;;0.03;0.03;;;;;33.40;100354.00;;;;5129872;27;20070;-76
2022/02/11 13:18:19;;;;;;;0.00;0.00;;;;;34.10;100345.00;;;;5128056;27;20417;-79
2022/02/11 13:21:04;;;;;;;0.00;0.00;;;;;33.30;100335.00;;;;5127272;27;20509;-74
2022/02/11 13:23:34;;;;;;;0.00;0.00;;;;;33.70;100337.00;;;;5128071;27;20117;-77
2022/02/11 13:26:12;;;;;;;0.00;0.00;;;;;34.00;100386.00;;;;5128283;27;20050;-78
2022/02/11 13:28:46;;;;;;;0.00;0.00;;;;;34.00;100349.00;;;;5127904;27;20447;-79
2022/02/11 13:31:18;;;;;;;0.00;0.00;;;;;34.20;100324.00;;;;5127271;27;20092;-74
2022/02/11 13:34:10;;;;;;;0.00;0.00;;;;;33.60;100358.00;;;;5128073;27;20134;-75
2022/02/11 13:36:47;;;;;;;0.00;0.00;;;;;33.50;100318.00;;;;5126759;27;20047;-76
2022/02/11 13:39:32;;;;;;;0.00;0.00;;;;;34.40;100355.00;;;;5128510;27;20039;-75
2022/02/11 13:42:12;;;;;;;0.00;0.00;;;;;34.60;100317.00;;;;5127986;27;20035;-76
2022/02/11 13:45:01;;;;;;;0.00;0.00;;;;;33.70;100333.00;;;;5128701;27;20047;-74
2022/02/11 13:47:31;;;;;;;0.00;0.00;;;;;34.10;100316.00;;;;5128660;27;20510;-73
2022/02/11 13:50:03;;;;;;;0.00;0.00;;;;;34.50;100323.00;;;;5128220;27;20100;-76
2022/02/11 13:53:03;;;;;;;0.00;0.00;;;;;34.30;100323.00;;;;5128472;27;20075;-74
2022/02/11 13:55:50;;;;;;;0.00;0.00;;;;;34.70;100319.00;;;;5128634;27;20043;-77
2022/02/11 13:58:20;;;;;;;0.00;0.00;;;;;34.80;100316.00;;;;5128151;27;20043;-75
2022/02/11 14:00:50;;;;;;;0.00;0.00;;;;;34.40;100314.00;;;;5126901;27;20395;-75
2022/02/11 14:03:20;;;;;;;0.00;0.00;;;;;34.20;100313.00;;;;5110365;27;20375;-75
2022/02/11 14:05:55;;;;;;;0.00;0.00;;;;;34.90;100316.00;;;;5127089;27;20417;-75
2022/02/11 14:08:43;;;;;;;0.00;0.00;;;;;35.70;100304.00;;;;5127029;27;20497;-75
2022/02/11 14:11:15;;;;;;;0.00;0.00;;;;;35.80;100311.00;;;;5128648;27;20073;-77
2022/02/11 14:13:46;;;;;;;0.00;0.00;;;;;35.80;100321.00;;;;5127783;27;20042;-76
2022/02/11 14:16:18;;;;;;;0.00;0.00;;;;;35.70;100325.00;;;;5128106;27;20071;-80
2022/02/11 14:18:48;;;;;;;0.00;0.00;;;;;34.60;100307.00;;;;5126026;27;20166;-80
2022/02/11 14:21:18;;;;;;;0.00;0.00;;;;;34.90;100322.00;;;;5127556;27;20043;-79
2022/02/11 14:23:47;;;;;;;0.00;0.00;;;;;35.10;100319.00;;;;5127365;27;20050;-78
2022/02/11 14:26:17;;;;;;;0.00;0.00;;;;;35.70;100311.00;;;;5128399;27;20063;-78
2022/02/11 14:28:46;;;;;;;0.00;0.00;;;;;36.10;100317.00;;;;5128355;27;20043;-78
2022/02/11 14:31:20;;;;;;;0.00;0.00;;;;;35.90;100298.00;;;;5127505;27;20099;-79
2022/02/11 14:33:49;;;;;;;0.00;0.00;;;;;36.00;100309.00;;;;5129015;27;20417;-78
2022/02/11 14:36:19;;;;;;;0.00;0.00;;;;;35.80;100298.00;;;;5127696;27;20088;-79
2022/02/11 14:38:48;;;;;;;0.00;0.00;;;;;36.00;100295.00;;;;5126160;27;20525;-80
2022/02/11 14:44:08;;;;;;;0.00;0.00;;;;;35.80;100296.00;;;;5126045;27;20063;-78
2022/02/11 14:46:37;;;;;;;0.00;0.00;;;;;35.70;100299.00;;;;5126626;27;20050;-76
2022/02/11 14:49:07;;;;;;;0.00;0.00;;;;;35.90;100297.00;;;;5128074;27;20050;-78
2022/02/11 14:51:37;;;;;;;0.00;0.00;;;;;36.40;100292.00;;;;5127321;27;20432;-77
2022/02/11 14:54:11;;;;;;;0.00;0.00;;;;;36.60;100298.00;;;;5125939;27;20039;-80
2022/02/11 14:56:41;;;;;;;0.00;0.00;;;;;36.10;100287.00;;;;5125834;27;20054;-79
2022/02/11 14:59:11;;;;;;;0.00;0.00;;;;;36.20;100290.00;;;;5128023;27;20549;-80
2022/02/11 15:01:46;;;;;;;0.00;0.00;;;;;36.60;100259.00;;;;5126869;27;20394;-77
2022/02/11 15:04:17;;;;;;;0.00;0.00;;;;;36.80;100292.00;;;;5125089;28;20044;-80
2022/02/11 15:06:53;;;;;;;0.00;0.00;;;;;37.10;100276.00;;;;5127321;27;20433;-77
2022/02/11 15:09:22;;;;;;;0.00;0.00;;;;;37.00;100287.00;;;;5127350;27;20043;-78
2022/02/11 15:11:52;;;;;;;0.00;0.00;;;;;37.50;100289.00;;;;5127136;27;20046;-75
2022/02/11 15:14:22;;;;;;;0.52;0.52;;;;;38.00;100267.00;;;;5126093;28;20047;-77
2022/02/11 15:16:52;;;;;;;0.00;0.00;;;;;37.80;100274.00;;;;5125264;28;20043;-79
2022/02/11 15:19:21;;;;;;;0.00;0.00;;;;;37.20;100265.00;;;;5125372;28;20051;-77
2022/02/11 15:21:50;;;;;;;0.00;0.00;;;;;37.10;100265.00;;;;5126770;27;20068;-76
2022/02/11 15:24:20;;;;;;;0.00;0.00;;;;;37.50;100265.00;;;;5127391;27;20047;-76
2022/02/11 15:26:51;;;;;;;0.00;0.00;;;;;37.30;100246.00;;;;5127481;28;20334;-76
2022/02/11 15:29:20;;;;;;;0.00;0.00;;;;;37.30;100253.00;;;;5126306;28;20407;-75
2022/02/11 15:31:50;;;;;;;0.00;0.00;;;;;37.40;100246.00;;;;5125257;28;20054;-80
2022/02/11 15:34:19;;;;;;;0.00;0.00;;;;;37.50;100253.00;;;;5126099;28;20047;-80
2022/02/11 15:36:49;;;;;;;0.00;0.00;;;;;37.50;100251.00;;;;5111695;28;20077;-77
2022/02/11 15:39:18;;;;;;;0.00;0.00;;;;;37.10;100237.00;;;;5127228;27;20051;-77
2022/02/11 15:41:48;;;;;;;0.00;0.00;;;;;37.20;100232.00;;;;5126447;27;20051;-78
2022/02/11 15:44:17;;;;;;;0.00;0.00;;;;;36.90;100223.00;;;;5108621;28;20059;-77
2022/02/11 15:46:47;;;;;;;0.00;0.00;;;;;37.30;100228.00;;;;5127483;27;20410;-76
2022/02/11 15:49:17;;;;;;;0.00;0.00;;;;;37.30;100235.00;;;;5126120;27;20092;-78
2022/02/11 15:51:46;;;;;;;0.00;0.00;;;;;36.60;100224.00;;;;5127020;27;20050;-76
2022/02/11 15:54:20;;;;;;;0.00;0.00;;;;;36.40;100224.00;;;;5118916;28;20059;-78
2022/02/11 15:56:49;;;;;;;0.00;0.00;;;;;37.00;100213.00;;;;5118652;28;20040;-79
2022/02/11 15:59:18;;;;;;;0.00;0.00;;;;;37.80;100224.00;;;;5117088;27;20104;-78
2022/02/11 16:01:50;;;;;;;0.00;0.00;;;;;37.90;100223.00;;;;5113022;28;20058;-75
2022/02/11 16:04:20;;;;;;;0.00;0.00;;;;;37.70;100221.00;;;;5125868;27;20122;-76
2022/02/11 16:06:50;;;;;;;0.00;0.00;;;;;38.00;100225.00;;;;5117791;27;20042;-77
2022/02/11 16:09:19;;;;;;;0.00;0.00;;;;;38.10;100225.00;;;;5123358;27;20070;-74
2022/02/11 16:11:49;;;;;;;0.00;0.00;;;;;38.10;100215.00;;;;5130031;27;20039;-76
2022/02/11 16:14:18;;;;;;;0.00;0.00;;;;;38.30;100204.00;;;;5129908;27;20043;-76
2022/02/11 16:16:48;;;;;;;0.00;0.00;;;;;38.30;100208.00;;;;5130040;27;20524;-75
2022/02/11 16:19:17;;;;;;;0.00;0.00;;;;;38.40;100206.00;;;;5129463;27;20039;-74
2022/02/11 16:21:46;;;;;;;0.00;0.00;;;;;38.60;100206.00;;;;5130301;27;20063;-74
2022/02/11 16:24:16;;;;;;;0.00;0.00;;;;;38.10;100192.00;;;;5131211;27;20051;-74
2022/02/11 16:26:45;;;;;;;0.00;0.00;;;;;38.40;100191.00;;;;5135047;27;20659;-76
2022/02/11 16:29:18;;;;;;;0.00;0.00;;;;;38.30;100195.00;;;;5144789;27;20039;-77
2022/02/11 16:31:52;;;;;;;0.00;0.00;;;;;38.70;100180.00;;;;5151646;27;20035;-77
2022/02/11 16:34:22;;;;;;;0.00;0.00;;;;;38.70;100195.00;;;;5139245;27;20051;-77